sensor_id;sensor_type;location;lat;lon;timestamp;P1;durP1;ratioP1;P2;durP2;ratioP2
11703;SDS011;5908;51.354;7.458;2023-05-07T00:02:14;14.48;;;11.45;;
11703;SDS011;5908;51.354;7.458;2023-05-07T00:04:41;12.15;;;10.75;;
11703;SDS011;5908;51.354;7.458;2023-05-07T00:07:10;24.30;;;17.15;;
11703;SDS011;5908;51.354;7.458;2023-05-07T00:09:37;20.70;;;16.02;;
11703;SDS011;5908;51.354;7.458;2023-05-07T00:12:03;12.27;;;7.95;;
11703;SDS011;5908;51.354;7.458;2023-05-07T00:14:30;15.50;;;11.38;;
11703;SDS011;5908;51.354;7.458;2023-05-07T00:16:57;16.63;;;13.75;;
11703;SDS011;5908;51.354;7.458;2023-05-07T00:19:24;26.80;;;18.80;;
11703;SDS011;5908;51.354;7.458;2023-05-07T00:21:51;15.98;;;12.32;;
11703;SDS011;5908;51.354;7.458;2023-05-07T00:24:19;13.38;;;10.65;;
11703;SDS011;5908;51.354;7.458;2023-05-07T00:26:46;12.45;;;8.05;;
11703;SDS011;5908;51.354;7.458;2023-05-07T00:29:13;16.20;;;12.80;;
11703;SDS011;5908;51.354;7.458;2023-05-07T00:31:40;8.75;;;7.45;;
11703;SDS011;5908;51.354;7.458;2023-05-07T00:34:06;11.07;;;8.73;;
11703;SDS011;5908;51.354;7.458;2023-05-07T00:36:33;10.45;;;7.68;;
11703;SDS011;5908;51.354;7.458;2023-05-07T00:39:00;9.57;;;7.47;;
11703;SDS011;5908;51.354;7.458;2023-05-07T00:41:29;7.10;;;6.40;;
11703;SDS011;5908;51.354;7.458;2023-05-07T00:43:56;8.68;;;7.30;;
11703;SDS011;5908;51.354;7.458;2023-05-07T00:46:23;10.52;;;8.35;;
11703;SDS011;5908;51.354;7.458;2023-05-07T00:48:50;9.68;;;7.97;;
11703;SDS011;5908;51.354;7.458;2023-05-07T00:51:17;9.10;;;7.22;;
11703;SDS011;5908;51.354;7.458;2023-05-07T00:53:44;9.85;;;6.82;;
11703;SDS011;5908;51.354;7.458;2023-05-07T00:56:12;9.68;;;8.55;;
11703;SDS011;5908;51.354;7.458;2023-05-07T00:58:40;9.52;;;7.22;;
11703;SDS011;5908;51.354;7.458;2023-05-07T01:01:07;7.10;;;5.78;;
11703;SDS011;5908;51.354;7.458;2023-05-07T01:03:33;7.65;;;5.72;;
11703;SDS011;5908;51.354;7.458;2023-05-07T01:12:45;7.75;;;4.97;;
11703;SDS011;5908;51.354;7.458;2023-05-07T01:15:15;9.77;;;5.85;;
11703;SDS011;5908;51.354;7.458;2023-05-07T01:17:43;7.10;;;5.30;;
11703;SDS011;5908;51.354;7.458;2023-05-07T01:20:10;6.45;;;5.00;;
11703;SDS011;5908;51.354;7.458;2023-05-07T01:22:40;7.57;;;4.00;;
11703;SDS011;5908;51.354;7.458;2023-05-07T01:25:09;6.25;;;5.07;;
11703;SDS011;5908;51.354;7.458;2023-05-07T01:27:35;6.40;;;3.97;;
11703;SDS011;5908;51.354;7.458;2023-05-07T01:30:02;6.50;;;4.63;;
11703;SDS011;5908;51.354;7.458;2023-05-07T01:32:32;6.68;;;5.10;;
11703;SDS011;5908;51.354;7.458;2023-05-07T01:35:05;9.68;;;6.47;;
11703;SDS011;5908;51.354;7.458;2023-05-07T01:37:35;11.23;;;7.72;;
11703;SDS011;5908;51.354;7.458;2023-05-07T01:40:05;15.90;;;8.98;;
11703;SDS011;5908;51.354;7.458;2023-05-07T01:42:33;13.65;;;8.70;;
11703;SDS011;5908;51.354;7.458;2023-05-07T01:45:00;8.15;;;5.10;;
11703;SDS011;5908;51.354;7.458;2023-05-07T01:47:27;9.43;;;8.05;;
11703;SDS011;5908;51.354;7.458;2023-05-07T01:49:55;5.75;;;4.20;;
11703;SDS011;5908;51.354;7.458;2023-05-07T01:52:22;14.57;;;8.35;;
11703;SDS011;5908;51.354;7.458;2023-05-07T01:54:50;16.10;;;10.63;;
11703;SDS011;5908;51.354;7.458;2023-05-07T01:57:18;23.05;;;13.68;;
11703;SDS011;5908;51.354;7.458;2023-05-07T01:59:45;10.73;;;8.38;;
11703;SDS011;5908;51.354;7.458;2023-05-07T02:02:12;7.50;;;4.70;;
11703;SDS011;5908;51.354;7.458;2023-05-07T02:04:38;6.25;;;4.53;;
11703;SDS011;5908;51.354;7.458;2023-05-07T02:07:05;14.50;;;9.23;;
11703;SDS011;5908;51.354;7.458;2023-05-07T02:09:32;6.75;;;5.43;;
11703;SDS011;5908;51.354;7.458;2023-05-07T02:11:59;7.30;;;4.35;;
11703;SDS011;5908;51.354;7.458;2023-05-07T02:14:27;7.25;;;5.32;;
11703;SDS011;5908;51.354;7.458;2023-05-07T02:16:54;12.13;;;6.70;;
11703;SDS011;5908;51.354;7.458;2023-05-07T02:19:21;20.17;;;11.18;;
11703;SDS011;5908;51.354;7.458;2023-05-07T02:21:48;11.02;;;6.63;;
11703;SDS011;5908;51.354;7.458;2023-05-07T02:24:15;16.25;;;10.40;;
11703;SDS011;5908;51.354;7.458;2023-05-07T02:26:42;8.15;;;5.97;;
11703;SDS011;5908;51.354;7.458;2023-05-07T02:29:08;19.23;;;7.82;;
11703;SDS011;5908;51.354;7.458;2023-05-07T02:31:37;10.45;;;4.75;;
11703;SDS011;5908;51.354;7.458;2023-05-07T02:34:03;11.65;;;7.63;;
11703;SDS011;5908;51.354;7.458;2023-05-07T02:36:30;10.48;;;5.30;;
11703;SDS011;5908;51.354;7.458;2023-05-07T02:38:57;8.02;;;4.10;;
11703;SDS011;5908;51.354;7.458;2023-05-07T02:41:24;9.25;;;4.95;;
11703;SDS011;5908;51.354;7.458;2023-05-07T02:43:50;5.40;;;3.70;;
11703;SDS011;5908;51.354;7.458;2023-05-07T02:46:17;7.60;;;6.18;;
11703;SDS011;5908;51.354;7.458;2023-05-07T02:48:45;12.02;;;6.97;;
11703;SDS011;5908;51.354;7.458;2023-05-07T02:51:12;9.23;;;6.70;;
11703;SDS011;5908;51.354;7.458;2023-05-07T02:53:39;22.25;;;16.50;;
11703;SDS011;5908;51.354;7.458;2023-05-07T02:56:06;6.43;;;3.75;;
11703;SDS011;5908;51.354;7.458;2023-05-07T02:58:33;8.02;;;4.82;;
11703;SDS011;5908;51.354;7.458;2023-05-07T03:00:59;25.90;;;17.40;;
11703;SDS011;5908;51.354;7.458;2023-05-07T03:03:26;7.22;;;3.85;;
11703;SDS011;5908;51.354;7.458;2023-05-07T03:05:54;23.73;;;15.93;;
11703;SDS011;5908;51.354;7.458;2023-05-07T03:08:21;17.27;;;10.55;;
11703;SDS011;5908;51.354;7.458;2023-05-07T03:10:48;23.05;;;14.25;;
11703;SDS011;5908;51.354;7.458;2023-05-07T03:13:15;14.40;;;10.77;;
11703;SDS011;5908;51.354;7.458;2023-05-07T03:15:41;13.60;;;8.27;;
11703;SDS011;5908;51.354;7.458;2023-05-07T03:18:08;20.83;;;12.82;;
11703;SDS011;5908;51.354;7.458;2023-05-07T03:20:35;22.38;;;12.70;;
11703;SDS011;5908;51.354;7.458;2023-05-07T03:23:03;19.55;;;11.65;;
11703;SDS011;5908;51.354;7.458;2023-05-07T03:25:31;14.18;;;9.35;;
11703;SDS011;5908;51.354;7.458;2023-05-07T03:27:58;14.30;;;8.35;;
11703;SDS011;5908;51.354;7.458;2023-05-07T03:30:25;16.08;;;9.40;;
11703;SDS011;5908;51.354;7.458;2023-05-07T03:32:52;11.25;;;6.55;;
11703;SDS011;5908;51.354;7.458;2023-05-07T03:35:19;8.27;;;5.10;;
11703;SDS011;5908;51.354;7.458;2023-05-07T03:37:45;7.85;;;5.28;;
11703;SDS011;5908;51.354;7.458;2023-05-07T03:40:13;6.05;;;5.18;;
11703;SDS011;5908;51.354;7.458;2023-05-07T03:42:40;8.25;;;5.75;;
11703;SDS011;5908;51.354;7.458;2023-05-07T03:45:08;13.07;;;7.55;;
11703;SDS011;5908;51.354;7.458;2023-05-07T03:47:35;8.50;;;6.28;;
11703;SDS011;5908;51.354;7.458;2023-05-07T03:50:01;10.07;;;5.40;;
11703;SDS011;5908;51.354;7.458;2023-05-07T03:52:28;7.63;;;5.00;;
11703;SDS011;5908;51.354;7.458;2023-05-07T03:54:55;10.40;;;6.60;;
11703;SDS011;5908;51.354;7.458;2023-05-07T03:57:23;12.35;;;6.75;;
11703;SDS011;5908;51.354;7.458;2023-05-07T03:59:50;7.22;;;6.03;;
11703;SDS011;5908;51.354;7.458;2023-05-07T04:02:17;10.57;;;5.20;;
11703;SDS011;5908;51.354;7.458;2023-05-07T04:04:44;6.60;;;5.72;;
11703;SDS011;5908;51.354;7.458;2023-05-07T04:07:10;10.35;;;5.68;;
11703;SDS011;5908;51.354;7.458;2023-05-07T04:09:37;6.80;;;4.88;;
11703;SDS011;5908;51.354;7.458;2023-05-07T04:12:04;6.15;;;5.10;;
11703;SDS011;5908;51.354;7.458;2023-05-07T04:14:32;30.48;;;25.15;;
11703;SDS011;5908;51.354;7.458;2023-05-07T04:16:59;9.45;;;6.20;;
11703;SDS011;5908;51.354;7.458;2023-05-07T04:19:25;5.85;;;5.25;;
11703;SDS011;5908;51.354;7.458;2023-05-07T04:21:52;10.60;;;8.10;;
11703;SDS011;5908;51.354;7.458;2023-05-07T04:24:19;12.02;;;8.70;;
11703;SDS011;5908;51.354;7.458;2023-05-07T04:26:45;34.70;;;30.17;;
11703;SDS011;5908;51.354;7.458;2023-05-07T04:29:12;31.52;;;26.83;;
11703;SDS011;5908;51.354;7.458;2023-05-07T04:31:40;17.50;;;14.10;;
11703;SDS011;5908;51.354;7.458;2023-05-07T04:34:09;19.52;;;14.30;;
11703;SDS011;5908;51.354;7.458;2023-05-07T04:36:36;6.53;;;4.20;;
11703;SDS011;5908;51.354;7.458;2023-05-07T04:39:03;19.47;;;14.43;;
11703;SDS011;5908;51.354;7.458;2023-05-07T04:41:30;11.95;;;7.88;;
11703;SDS011;5908;51.354;7.458;2023-05-07T04:43:57;9.27;;;5.95;;
11703;SDS011;5908;51.354;7.458;2023-05-07T04:46:24;8.68;;;4.80;;
11703;SDS011;5908;51.354;7.458;2023-05-07T04:48:52;7.60;;;4.40;;
11703;SDS011;5908;51.354;7.458;2023-05-07T04:51:18;9.23;;;5.50;;
11703;SDS011;5908;51.354;7.458;2023-05-07T04:53:45;6.78;;;5.00;;
11703;SDS011;5908;51.354;7.458;2023-05-07T04:56:12;9.00;;;5.57;;
11703;SDS011;5908;51.354;7.458;2023-05-07T04:58:38;5.93;;;4.95;;
11703;SDS011;5908;51.354;7.458;2023-05-07T05:01:05;5.53;;;4.70;;
11703;SDS011;5908;51.354;7.458;2023-05-07T05:03:32;5.10;;;4.60;;
11703;SDS011;5908;51.354;7.458;2023-05-07T05:06:00;7.15;;;4.47;;
11703;SDS011;5908;51.354;7.458;2023-05-07T05:08:27;6.95;;;4.40;;
11703;SDS011;5908;51.354;7.458;2023-05-07T05:10:55;6.45;;;4.25;;
11703;SDS011;5908;51.354;7.458;2023-05-07T05:13:22;6.57;;;4.20;;
11703;SDS011;5908;51.354;7.458;2023-05-07T05:15:49;5.15;;;3.53;;
11703;SDS011;5908;51.354;7.458;2023-05-07T05:18:16;6.40;;;4.15;;
11703;SDS011;5908;51.354;7.458;2023-05-07T05:20:42;4.13;;;3.42;;
11703;SDS011;5908;51.354;7.458;2023-05-07T05:23:10;4.40;;;2.78;;
11703;SDS011;5908;51.354;7.458;2023-05-07T05:25:37;5.32;;;3.17;;
11703;SDS011;5908;51.354;7.458;2023-05-07T05:28:05;4.97;;;3.15;;
11703;SDS011;5908;51.354;7.458;2023-05-07T05:30:31;6.95;;;4.03;;
11703;SDS011;5908;51.354;7.458;2023-05-07T05:32:58;4.80;;;3.30;;
11703;SDS011;5908;51.354;7.458;2023-05-07T05:35:25;4.75;;;3.47;;
11703;SDS011;5908;51.354;7.458;2023-05-07T05:37:52;5.93;;;4.53;;
11703;SDS011;5908;51.354;7.458;2023-05-07T05:40:20;10.30;;;7.07;;
11703;SDS011;5908;51.354;7.458;2023-05-07T05:42:47;5.45;;;4.95;;
11703;SDS011;5908;51.354;7.458;2023-05-07T05:45:13;6.65;;;4.70;;
11703;SDS011;5908;51.354;7.458;2023-05-07T05:47:40;8.00;;;4.80;;
11703;SDS011;5908;51.354;7.458;2023-05-07T05:50:07;5.88;;;3.88;;
11703;SDS011;5908;51.354;7.458;2023-05-07T05:52:34;4.63;;;4.20;;
11703;SDS011;5908;51.354;7.458;2023-05-07T05:55:01;7.25;;;4.07;;
11703;SDS011;5908;51.354;7.458;2023-05-07T05:57:29;7.15;;;4.38;;
11703;SDS011;5908;51.354;7.458;2023-05-07T05:59:55;7.10;;;3.28;;
11703;SDS011;5908;51.354;7.458;2023-05-07T06:02:22;7.35;;;3.47;;
11703;SDS011;5908;51.354;7.458;2023-05-07T06:04:49;7.30;;;3.05;;
11703;SDS011;5908;51.354;7.458;2023-05-07T06:07:16;5.00;;;3.00;;
11703;SDS011;5908;51.354;7.458;2023-05-07T06:09:42;5.47;;;2.83;;
11703;SDS011;5908;51.354;7.458;2023-05-07T06:12:09;8.60;;;3.33;;
11703;SDS011;5908;51.354;7.458;2023-05-07T06:14:37;3.30;;;2.80;;
11703;SDS011;5908;51.354;7.458;2023-05-07T06:17:04;5.00;;;3.00;;
11703;SDS011;5908;51.354;7.458;2023-05-07T06:19:30;5.47;;;3.60;;
11703;SDS011;5908;51.354;7.458;2023-05-07T06:21:57;5.68;;;4.00;;
11703;SDS011;5908;51.354;7.458;2023-05-07T06:24:26;5.32;;;4.20;;
11703;SDS011;5908;51.354;7.458;2023-05-07T06:26:53;5.38;;;4.63;;
11703;SDS011;5908;51.354;7.458;2023-05-07T06:29:19;5.90;;;4.35;;
11703;SDS011;5908;51.354;7.458;2023-05-07T06:31:48;4.82;;;4.32;;
11703;SDS011;5908;51.354;7.458;2023-05-07T06:34:14;6.05;;;4.18;;
11703;SDS011;5908;51.354;7.458;2023-05-07T06:36:41;6.80;;;4.20;;
11703;SDS011;5908;51.354;7.458;2023-05-07T06:39:08;7.55;;;4.43;;
11703;SDS011;5908;51.354;7.458;2023-05-07T06:41:34;6.88;;;4.35;;
11703;SDS011;5908;51.354;7.458;2023-05-07T06:44:01;7.40;;;4.63;;
11703;SDS011;5908;51.354;7.458;2023-05-07T06:46:28;6.32;;;5.20;;
11703;SDS011;5908;51.354;7.458;2023-05-07T06:48:56;4.55;;;4.15;;
11703;SDS011;5908;51.354;7.458;2023-05-07T06:51:23;6.43;;;4.32;;
11703;SDS011;5908;51.354;7.458;2023-05-07T06:53:50;4.45;;;3.70;;
11703;SDS011;5908;51.354;7.458;2023-05-07T06:56:17;5.95;;;3.47;;
11703;SDS011;5908;51.354;7.458;2023-05-07T06:58:43;5.07;;;3.85;;
11703;SDS011;5908;51.354;7.458;2023-05-07T07:01:10;6.63;;;4.90;;
11703;SDS011;5908;51.354;7.458;2023-05-07T07:03:37;7.55;;;4.78;;
11703;SDS011;5908;51.354;7.458;2023-05-07T07:06:05;4.60;;;4.15;;
11703;SDS011;5908;51.354;7.458;2023-05-07T07:08:32;4.55;;;4.00;;
11703;SDS011;5908;51.354;7.458;2023-05-07T07:10:59;5.13;;;4.63;;
11703;SDS011;5908;51.354;7.458;2023-05-07T07:13:26;5.00;;;3.83;;
11703;SDS011;5908;51.354;7.458;2023-05-07T07:15:52;6.40;;;4.00;;
11703;SDS011;5908;51.354;7.458;2023-05-07T07:18:19;4.15;;;3.42;;
11703;SDS011;5908;51.354;7.458;2023-05-07T07:20:46;7.07;;;3.97;;
11703;SDS011;5908;51.354;7.458;2023-05-07T07:23:14;4.60;;;3.70;;
11703;SDS011;5908;51.354;7.458;2023-05-07T07:25:41;4.78;;;3.50;;
11703;SDS011;5908;51.354;7.458;2023-05-07T07:28:08;5.45;;;3.42;;
11703;SDS011;5908;51.354;7.458;2023-05-07T07:30:35;4.88;;;3.85;;
11703;SDS011;5908;51.354;7.458;2023-05-07T07:33:02;4.38;;;3.95;;
11703;SDS011;5908;51.354;7.458;2023-05-07T07:35:30;5.03;;;3.13;;
11703;SDS011;5908;51.354;7.458;2023-05-07T07:37:57;4.55;;;2.85;;
11703;SDS011;5908;51.354;7.458;2023-05-07T07:40:25;2.78;;;2.38;;
11703;SDS011;5908;51.354;7.458;2023-05-07T07:42:52;3.03;;;2.38;;
11703;SDS011;5908;51.354;7.458;2023-05-07T07:45:19;3.15;;;2.58;;
11703;SDS011;5908;51.354;7.458;2023-05-07T07:47:46;4.05;;;2.83;;
11703;SDS011;5908;51.354;7.458;2023-05-07T07:50:13;4.97;;;3.40;;
11703;SDS011;5908;51.354;7.458;2023-05-07T07:52:39;3.67;;;3.28;;
11703;SDS011;5908;51.354;7.458;2023-05-07T07:55:07;5.47;;;3.00;;
11703;SDS011;5908;51.354;7.458;2023-05-07T07:57:35;4.55;;;2.97;;
11703;SDS011;5908;51.354;7.458;2023-05-07T08:00:02;3.38;;;2.80;;
11703;SDS011;5908;51.354;7.458;2023-05-07T08:02:32;4.93;;;3.80;;
11703;SDS011;5908;51.354;7.458;2023-05-07T08:04:58;6.78;;;6.07;;
11703;SDS011;5908;51.354;7.458;2023-05-07T08:07:25;7.30;;;5.68;;
11703;SDS011;5908;51.354;7.458;2023-05-07T08:09:52;6.65;;;3.13;;
11703;SDS011;5908;51.354;7.458;2023-05-07T08:12:18;3.22;;;2.92;;
11703;SDS011;5908;51.354;7.458;2023-05-07T08:14:46;7.80;;;5.47;;
11703;SDS011;5908;51.354;7.458;2023-05-07T08:17:13;4.63;;;3.15;;
11703;SDS011;5908;51.354;7.458;2023-05-07T08:19:40;3.55;;;3.22;;
11703;SDS011;5908;51.354;7.458;2023-05-07T08:22:07;5.35;;;4.07;;
11703;SDS011;5908;51.354;7.458;2023-05-07T08:24:34;4.63;;;4.22;;
11703;SDS011;5908;51.354;7.458;2023-05-07T08:27:01;3.85;;;3.42;;
11703;SDS011;5908;51.354;7.458;2023-05-07T08:29:28;5.28;;;4.35;;
11703;SDS011;5908;51.354;7.458;2023-05-07T08:31:56;5.70;;;4.18;;
11703;SDS011;5908;51.354;7.458;2023-05-07T08:34:22;6.03;;;4.30;;
11703;SDS011;5908;51.354;7.458;2023-05-07T08:36:49;3.95;;;3.55;;
11703;SDS011;5908;51.354;7.458;2023-05-07T08:39:16;4.57;;;4.15;;
11703;SDS011;5908;51.354;7.458;2023-05-07T08:41:43;4.43;;;2.97;;
11703;SDS011;5908;51.354;7.458;2023-05-07T08:44:12;6.13;;;5.50;;
11703;SDS011;5908;51.354;7.458;2023-05-07T08:46:39;3.40;;;3.08;;
11703;SDS011;5908;51.354;7.458;2023-05-07T08:49:09;3.85;;;3.40;;
11703;SDS011;5908;51.354;7.458;2023-05-07T08:51:36;5.28;;;3.92;;
11703;SDS011;5908;51.354;7.458;2023-05-07T08:54:03;3.63;;;3.00;;
11703;SDS011;5908;51.354;7.458;2023-05-07T08:56:31;3.88;;;3.25;;
11703;SDS011;5908;51.354;7.458;2023-05-07T08:58:58;4.85;;;3.10;;
11703;SDS011;5908;51.354;7.458;2023-05-07T09:01:25;4.57;;;2.92;;
11703;SDS011;5908;51.354;7.458;2023-05-07T09:03:52;4.50;;;3.75;;
11703;SDS011;5908;51.354;7.458;2023-05-07T09:06:21;5.28;;;3.55;;
11703;SDS011;5908;51.354;7.458;2023-05-07T09:08:51;3.55;;;2.90;;
11703;SDS011;5908;51.354;7.458;2023-05-07T09:11:22;5.20;;;3.47;;
11703;SDS011;5908;51.354;7.458;2023-05-07T09:13:53;3.20;;;2.75;;
11703;SDS011;5908;51.354;7.458;2023-05-07T09:16:20;9.57;;;7.15;;
11703;SDS011;5908;51.354;7.458;2023-05-07T09:18:48;7.22;;;2.75;;
11703;SDS011;5908;51.354;7.458;2023-05-07T09:21:18;6.32;;;2.58;;
11703;SDS011;5908;51.354;7.458;2023-05-07T09:23:46;2.40;;;2.00;;
11703;SDS011;5908;51.354;7.458;2023-05-07T09:26:14;2.22;;;2.10;;
11703;SDS011;5908;51.354;7.458;2023-05-07T09:28:41;3.25;;;2.30;;
11703;SDS011;5908;51.354;7.458;2023-05-07T09:31:08;3.67;;;3.00;;
11703;SDS011;5908;51.354;7.458;2023-05-07T09:33:36;4.85;;;2.33;;
11703;SDS011;5908;51.354;7.458;2023-05-07T09:36:03;2.53;;;2.33;;
11703;SDS011;5908;51.354;7.458;2023-05-07T09:38:30;3.08;;;2.38;;
11703;SDS011;5908;51.354;7.458;2023-05-07T09:41:05;2.60;;;2.03;;
11703;SDS011;5908;51.354;7.458;2023-05-07T09:43:33;2.60;;;1.70;;
11703;SDS011;5908;51.354;7.458;2023-05-07T09:46:02;2.83;;;1.80;;
11703;SDS011;5908;51.354;7.458;2023-05-07T09:48:31;1.95;;;1.70;;
11703;SDS011;5908;51.354;7.458;2023-05-07T09:51:02;4.85;;;2.25;;
11703;SDS011;5908;51.354;7.458;2023-05-07T09:53:31;2.22;;;1.80;;
11703;SDS011;5908;51.354;7.458;2023-05-07T09:55:59;2.55;;;1.63;;
11703;SDS011;5908;51.354;7.458;2023-05-07T09:58:29;2.70;;;2.08;;
11703;SDS011;5908;51.354;7.458;2023-05-07T10:00:57;2.38;;;1.88;;
11703;SDS011;5908;51.354;7.458;2023-05-07T10:03:24;1.70;;;1.40;;
11703;SDS011;5908;51.354;7.458;2023-05-07T10:05:53;1.85;;;1.58;;
11703;SDS011;5908;51.354;7.458;2023-05-07T10:08:21;2.08;;;1.52;;
11703;SDS011;5908;51.354;7.458;2023-05-07T10:10:47;2.35;;;1.90;;
11703;SDS011;5908;51.354;7.458;2023-05-07T10:13:15;2.15;;;1.60;;
11703;SDS011;5908;51.354;7.458;2023-05-07T10:15:45;1.67;;;1.58;;
11703;SDS011;5908;51.354;7.458;2023-05-07T10:18:13;2.20;;;1.58;;
11703;SDS011;5908;51.354;7.458;2023-05-07T10:20:41;2.17;;;1.80;;
11703;SDS011;5908;51.354;7.458;2023-05-07T10:23:12;2.17;;;1.65;;
11703;SDS011;5908;51.354;7.458;2023-05-07T10:25:43;2.20;;;1.70;;
11703;SDS011;5908;51.354;7.458;2023-05-07T10:28:10;2.05;;;1.92;;
11703;SDS011;5908;51.354;7.458;2023-05-07T10:30:40;2.20;;;2.00;;
11703;SDS011;5908;51.354;7.458;2023-05-07T10:33:19;1.75;;;1.65;;
11703;SDS011;5908;51.354;7.458;2023-05-07T10:35:49;2.42;;;1.85;;
11703;SDS011;5908;51.354;7.458;2023-05-07T10:38:16;2.70;;;1.83;;
11703;SDS011;5908;51.354;7.458;2023-05-07T10:40:44;2.85;;;1.90;;
11703;SDS011;5908;51.354;7.458;2023-05-07T10:43:10;2.80;;;1.75;;
11703;SDS011;5908;51.354;7.458;2023-05-07T10:45:37;2.13;;;1.80;;
11703;SDS011;5908;51.354;7.458;2023-05-07T10:48:09;2.85;;;1.75;;
11703;SDS011;5908;51.354;7.458;2023-05-07T10:50:38;2.65;;;2.17;;
11703;SDS011;5908;51.354;7.458;2023-05-07T10:53:24;2.15;;;1.80;;
11703;SDS011;5908;51.354;7.458;2023-05-07T10:58:55;2.38;;;1.85;;
11703;SDS011;5908;51.354;7.458;2023-05-07T11:01:50;3.50;;;2.40;;
11703;SDS011;5908;51.354;7.458;2023-05-07T11:04:20;3.72;;;2.78;;
11703;SDS011;5908;51.354;7.458;2023-05-07T11:09:56;2.67;;;2.35;;
11703;SDS011;5908;51.354;7.458;2023-05-07T11:15:37;5.78;;;4.25;;
11703;SDS011;5908;51.354;7.458;2023-05-07T11:18:06;4.65;;;4.22;;
11703;SDS011;5908;51.354;7.458;2023-05-07T11:20:45;4.50;;;4.07;;
11703;SDS011;5908;51.354;7.458;2023-05-07T11:26:27;5.43;;;4.57;;
11703;SDS011;5908;51.354;7.458;2023-05-07T11:28:56;7.53;;;5.72;;
11703;SDS011;5908;51.354;7.458;2023-05-07T11:31:26;6.70;;;6.00;;
11703;SDS011;5908;51.354;7.458;2023-05-07T11:33:54;6.70;;;6.10;;
11703;SDS011;5908;51.354;7.458;2023-05-07T11:36:23;5.50;;;5.00;;
11703;SDS011;5908;51.354;7.458;2023-05-07T11:38:51;6.68;;;6.07;;
11703;SDS011;5908;51.354;7.458;2023-05-07T11:41:17;6.78;;;5.88;;
11703;SDS011;5908;51.354;7.458;2023-05-07T11:43:53;6.85;;;5.57;;
11703;SDS011;5908;51.354;7.458;2023-05-07T11:46:22;5.72;;;5.22;;
11703;SDS011;5908;51.354;7.458;2023-05-07T11:48:49;8.35;;;7.07;;
11703;SDS011;5908;51.354;7.458;2023-05-07T11:51:21;7.00;;;5.95;;
11703;SDS011;5908;51.354;7.458;2023-05-07T11:53:52;6.07;;;5.32;;
11703;SDS011;5908;51.354;7.458;2023-05-07T11:56:19;5.97;;;5.32;;
11703;SDS011;5908;51.354;7.458;2023-05-07T11:58:46;4.95;;;4.45;;
11703;SDS011;5908;51.354;7.458;2023-05-07T12:01:14;7.00;;;5.25;;
11703;SDS011;5908;51.354;7.458;2023-05-07T12:03:43;5.80;;;5.18;;
11703;SDS011;5908;51.354;7.458;2023-05-07T12:06:11;4.63;;;4.15;;
11703;SDS011;5908;51.354;7.458;2023-05-07T12:08:40;4.68;;;4.25;;
11703;SDS011;5908;51.354;7.458;2023-05-07T12:11:08;6.30;;;5.70;;
11703;SDS011;5908;51.354;7.458;2023-05-07T12:13:36;5.47;;;4.78;;
11703;SDS011;5908;51.354;7.458;2023-05-07T12:16:04;5.10;;;4.53;;
11703;SDS011;5908;51.354;7.458;2023-05-07T12:18:32;5.15;;;4.70;;
11703;SDS011;5908;51.354;7.458;2023-05-07T12:21:00;8.00;;;6.18;;
11703;SDS011;5908;51.354;7.458;2023-05-07T12:23:27;5.53;;;5.03;;
11703;SDS011;5908;51.354;7.458;2023-05-07T12:25:56;6.50;;;5.10;;
11703;SDS011;5908;51.354;7.458;2023-05-07T12:28:23;5.47;;;4.88;;
11703;SDS011;5908;51.354;7.458;2023-05-07T12:30:50;6.55;;;5.80;;
11703;SDS011;5908;51.354;7.458;2023-05-07T12:33:18;5.50;;;4.38;;
11703;SDS011;5908;51.354;7.458;2023-05-07T12:35:54;5.78;;;5.22;;
11703;SDS011;5908;51.354;7.458;2023-05-07T12:38:21;6.70;;;5.85;;
11703;SDS011;5908;51.354;7.458;2023-05-07T12:40:48;6.60;;;5.28;;
11703;SDS011;5908;51.354;7.458;2023-05-07T12:43:18;16.75;;;14.68;;
11703;SDS011;5908;51.354;7.458;2023-05-07T12:45:47;11.43;;;9.75;;
11703;SDS011;5908;51.354;7.458;2023-05-07T12:48:15;5.07;;;4.60;;
11703;SDS011;5908;51.354;7.458;2023-05-07T12:50:42;4.97;;;4.35;;
11703;SDS011;5908;51.354;7.458;2023-05-07T12:53:11;3.88;;;3.47;;
11703;SDS011;5908;51.354;7.458;2023-05-07T12:55:42;5.78;;;3.78;;
11703;SDS011;5908;51.354;7.458;2023-05-07T12:58:14;5.10;;;3.97;;
11703;SDS011;5908;51.354;7.458;2023-05-07T13:00:44;23.95;;;10.20;;
11703;SDS011;5908;51.354;7.458;2023-05-07T13:03:17;5.93;;;4.65;;
11703;SDS011;5908;51.354;7.458;2023-05-07T13:05:48;9.98;;;6.25;;
11703;SDS011;5908;51.354;7.458;2023-05-07T13:08:23;11.93;;;7.50;;
11703;SDS011;5908;51.354;7.458;2023-05-07T13:10:51;17.30;;;7.68;;
11703;SDS011;5908;51.354;7.458;2023-05-07T13:13:18;8.20;;;4.57;;
11703;SDS011;5908;51.354;7.458;2023-05-07T13:15:46;6.45;;;5.85;;
11703;SDS011;5908;51.354;7.458;2023-05-07T13:18:13;16.80;;;12.90;;
11703;SDS011;5908;51.354;7.458;2023-05-07T13:20:39;12.90;;;9.80;;
11703;SDS011;5908;51.354;7.458;2023-05-07T13:23:06;16.35;;;12.25;;
11703;SDS011;5908;51.354;7.458;2023-05-07T13:25:33;10.85;;;8.73;;
11703;SDS011;5908;51.354;7.458;2023-05-07T13:28:00;12.82;;;9.82;;
11703;SDS011;5908;51.354;7.458;2023-05-07T13:30:27;18.25;;;12.98;;
11703;SDS011;5908;51.354;7.458;2023-05-07T13:32:56;18.63;;;13.38;;
11703;SDS011;5908;51.354;7.458;2023-05-07T13:35:22;10.25;;;9.10;;
11703;SDS011;5908;51.354;7.458;2023-05-07T13:37:49;12.38;;;10.25;;
11703;SDS011;5908;51.354;7.458;2023-05-07T13:40:17;24.17;;;11.93;;
11703;SDS011;5908;51.354;7.458;2023-05-07T13:42:43;11.93;;;9.23;;
11703;SDS011;5908;51.354;7.458;2023-05-07T13:45:10;13.30;;;10.45;;
11703;SDS011;5908;51.354;7.458;2023-05-07T13:47:39;14.10;;;11.30;;
11703;SDS011;5908;51.354;7.458;2023-05-07T13:50:08;12.93;;;11.10;;
11703;SDS011;5908;51.354;7.458;2023-05-07T13:52:36;14.90;;;12.35;;
11703;SDS011;5908;51.354;7.458;2023-05-07T13:55:03;15.52;;;10.07;;
11703;SDS011;5908;51.354;7.458;2023-05-07T13:57:30;15.20;;;11.95;;
11703;SDS011;5908;51.354;7.458;2023-05-07T13:59:57;13.93;;;10.77;;
11703;SDS011;5908;51.354;7.458;2023-05-07T14:02:24;12.10;;;9.98;;
11703;SDS011;5908;51.354;7.458;2023-05-07T14:04:50;10.13;;;8.98;;
11703;SDS011;5908;51.354;7.458;2023-05-07T14:07:18;12.07;;;9.80;;
11703;SDS011;5908;51.354;7.458;2023-05-07T14:09:45;7.15;;;6.35;;
11703;SDS011;5908;51.354;7.458;2023-05-07T14:12:12;11.15;;;8.20;;
11703;SDS011;5908;51.354;7.458;2023-05-07T14:14:38;7.45;;;6.65;;
11703;SDS011;5908;51.354;7.458;2023-05-07T14:17:05;7.00;;;6.15;;
11703;SDS011;5908;51.354;7.458;2023-05-07T14:19:33;8.85;;;6.32;;
11703;SDS011;5908;51.354;7.458;2023-05-07T14:22:00;8.38;;;7.32;;
11703;SDS011;5908;51.354;7.458;2023-05-07T14:24:28;8.68;;;6.72;;
11703;SDS011;5908;51.354;7.458;2023-05-07T14:26:55;8.70;;;7.78;;
11703;SDS011;5908;51.354;7.458;2023-05-07T14:29:22;13.00;;;11.30;;
11703;SDS011;5908;51.354;7.458;2023-05-07T14:31:49;9.68;;;7.85;;
11703;SDS011;5908;51.354;7.458;2023-05-07T14:34:15;10.65;;;9.55;;
11703;SDS011;5908;51.354;7.458;2023-05-07T14:36:42;7.22;;;6.30;;
11703;SDS011;5908;51.354;7.458;2023-05-07T14:39:09;6.97;;;6.38;;
11703;SDS011;5908;51.354;7.458;2023-05-07T14:41:37;9.32;;;8.35;;
11703;SDS011;5908;51.354;7.458;2023-05-07T14:44:04;8.95;;;7.55;;
11703;SDS011;5908;51.354;7.458;2023-05-07T14:46:30;9.75;;;8.43;;
11703;SDS011;5908;51.354;7.458;2023-05-07T14:48:57;8.57;;;7.78;;
11703;SDS011;5908;51.354;7.458;2023-05-07T14:51:24;8.90;;;7.70;;
11703;SDS011;5908;51.354;7.458;2023-05-07T14:53:53;13.85;;;9.80;;
11703;SDS011;5908;51.354;7.458;2023-05-07T14:56:19;9.15;;;8.23;;
11703;SDS011;5908;51.354;7.458;2023-05-07T14:58:48;8.48;;;6.88;;
11703;SDS011;5908;51.354;7.458;2023-05-07T15:01:14;13.20;;;11.88;;
11703;SDS011;5908;51.354;7.458;2023-05-07T15:03:41;6.90;;;6.20;;
11703;SDS011;5908;51.354;7.458;2023-05-07T15:06:08;7.15;;;5.75;;
11703;SDS011;5908;51.354;7.458;2023-05-07T15:08:35;9.48;;;6.72;;
11703;SDS011;5908;51.354;7.458;2023-05-07T15:11:02;7.97;;;6.63;;
11703;SDS011;5908;51.354;7.458;2023-05-07T15:13:28;8.48;;;6.53;;
11703;SDS011;5908;51.354;7.458;2023-05-07T15:15:56;7.72;;;6.57;;
11703;SDS011;5908;51.354;7.458;2023-05-07T15:18:23;8.32;;;6.60;;